Time;durP1;ratioP1;P1;durP2;ratioP2;P2;SDS_P1;SDS_P2;PMS_P1;PMS_P2;Temp;Humidity;BMP_temperature;BMP_pressure;BME280_temperature;BME280_humidity;BME280_pressure;Samples;Min_cycle;Max_cycle;Signal;HPM_P1;HPM_P2
2023/06/21 00:00:24;;;;;;;4.70;2.35;;;;;;;;;;5069627;28;20135;-69
2023/06/21 00:02:53;;;;;;;6.53;2.30;;;;;;;;;;5077234;28;20399;-69
2023/06/21 00:05:23;;;;;;;10.75;3.10;;;;;;;;;;5070263;28;20526;-68
2023/06/21 00:07:53;;;;;;;7.47;2.80;;;;;;;;;;5078764;28;20063;-69
2023/06/21 00:10:23;;;;;;;8.27;3.08;;;;;;;;;;5075612;28;20052;-68
2023/06/21 00:12:51;;;;;;;4.90;2.47;;;;;;;;;;5077344;28;20680;-72
2023/06/21 00:15:21;;;;;;;4.85;2.85;;;;;;;;;;5074016;28;20094;-74
2023/06/21 00:17:49;;;;;;;6.15;2.92;;;;;;;;;;5075302;28;20263;-68
2023/06/21 00:20:18;;;;;;;7.75;2.50;;;;;;;;;;5070439;28;20075;-68
2023/06/21 00:22:55;;;;;;;8.50;3.22;;;;;;;;;;5073566;28;20121;-72
2023/06/21 00:25:24;;;;;;;6.63;2.78;;;;;;;;;;5067870;28;20060;-69
2023/06/21 00:27:52;;;;;;;6.47;3.20;;;;;;;;;;5076606;28;20396;-72
2023/06/21 00:30:21;;;;;;;5.40;2.55;;;;;;;;;;5074366;28;20468;-70
2023/06/21 00:32:49;;;;;;;6.28;3.03;;;;;;;;;;5074963;28;20589;-68
2023/06/21 00:35:17;;;;;;;8.70;2.92;;;;;;;;;;5065917;28;20048;-68
2023/06/21 00:37:47;;;;;;;5.65;3.63;;;;;;;;;;5069502;28;20171;-69
2023/06/21 00:40:16;;;;;;;4.50;2.35;;;;;;;;;;5069626;28;20068;-70
2023/06/21 00:42:44;;;;;;;6.00;3.25;;;;;;;;;;5074180;28;20048;-73
2023/06/21 00:45:15;;;;;;;5.53;2.53;;;;;;;;;;5074367;28;20147;-70
2023/06/21 00:47:45;;;;;;;4.68;2.47;;;;;;;;;;5076018;28;20055;-70
2023/06/21 00:50:14;;;;;;;3.63;2.15;;;;;;;;;;5074251;28;20059;-68
2023/06/21 00:52:43;;;;;;;7.15;3.47;;;;;;;;;;5077519;28;20412;-72
2023/06/21 00:55:14;;;;;;;4.90;3.10;;;;;;;;;;5073564;28;20048;-69
2023/06/21 00:57:44;;;;;;;4.47;2.10;;;;;;;;;;5077322;28;20090;-67
2023/06/21 01:00:20;;;;;;;7.60;2.50;;;;;;;;;;5070661;28;20149;-70
2023/06/21 01:02:49;;;;;;;7.55;2.90;;;;;;;;;;5099090;22;20080;-73
2023/06/21 01:05:18;;;;;;;10.07;3.35;;;;;;;;;;5075663;28;20175;-68
2023/06/21 01:07:51;;;;;;;4.53;2.90;;;;;;;;;;5068581;28;20045;-74
2023/06/21 01:10:28;;;;;;;5.25;2.70;;;;;;;;;;5067526;28;20074;-65
2023/06/21 01:13:04;;;;;;;6.57;2.88;;;;;;;;;;5068188;28;20070;-65
2023/06/21 01:15:36;;;;;;;5.75;2.80;;;;;;;;;;5055193;28;20520;-66
2023/06/21 01:18:06;;;;;;;7.32;3.22;;;;;;;;;;5049609;28;20079;-68
2023/06/21 01:20:36;;;;;;;8.52;3.15;;;;;;;;;;5050288;28;20474;-72
2023/06/21 01:23:13;;;;;;;6.45;3.22;;;;;;;;;;5053524;28;20075;-77
2023/06/21 01:25:46;;;;;;;6.95;3.10;;;;;;;;;;5056996;28;20131;-77
2023/06/21 01:28:32;;;;;;;4.72;3.03;;;;;;;;;;5048070;28;20122;-63
2023/06/21 01:31:01;;;;;;;;;;;;;;;;;;5046594;28;20056;-76
2023/06/21 01:33:31;;;;;;;7.15;3.05;;;;;;;;;;5054105;28;20543;-65
2023/06/21 01:36:03;;;;;;;5.43;3.03;;;;;;;;;;5065092;28;20446;-72
2023/06/21 01:38:33;;;;;;;5.93;2.85;;;;;;;;;;5071719;28;20040;-68
2023/06/21 01:41:01;;;;;;;7.72;2.95;;;;;;;;;;5070962;28;20420;-64
2023/06/21 01:43:30;;;;;;;7.10;3.08;;;;;;;;;;5070682;28;20056;-68
2023/06/21 01:46:01;;;;;;;11.35;3.47;;;;;;;;;;5069817;28;20485;-72
2023/06/21 01:48:33;;;;;;;6.82;2.92;;;;;;;;;;5073553;28;20052;-77
2023/06/21 01:51:02;;;;;;;5.90;2.83;;;;;;;;;;5073742;28;20052;-67
2023/06/21 01:53:32;;;;;;;5.82;2.75;;;;;;;;;;5072810;28;20044;-64
2023/06/21 01:56:01;;;;;;;5.40;2.85;;;;;;;;;;5073892;28;20146;-71
2023/06/21 01:58:31;;;;;;;6.85;2.97;;;;;;;;;;5073328;28;20048;-63
2023/06/21 02:01:00;;;;;;;6.10;2.72;;;;;;;;;;5069401;28;20036;-76
2023/06/21 02:03:29;;;;;;;7.93;2.53;;;;;;;;;;5067842;28;20686;-75
2023/06/21 02:06:05;;;;;;;4.35;2.38;;;;;;;;;;5077395;28;20071;-67
2023/06/21 02:08:34;;;;;;;4.40;2.85;;;;;;;;;;5073246;28;20773;-63
2023/06/21 02:11:02;;;;;;;7.72;2.95;;;;;;;;;;5068819;28;20094;-65
2023/06/21 02:13:31;;;;;;;8.90;3.05;;;;;;;;;;5079595;28;20044;-69
2023/06/21 02:15:59;;;;;;;5.95;2.58;;;;;;;;;;5072353;28;20404;-75
2023/06/21 02:18:28;;;;;;;5.82;2.70;;;;;;;;;;5074703;28;20097;-68
2023/06/21 02:20:57;;;;;;;6.05;2.58;;;;;;;;;;5076209;28;20052;-68
2023/06/21 02:23:27;;;;;;;4.68;2.47;;;;;;;;;;5070286;28;20050;-71
2023/06/21 02:25:55;;;;;;;6.28;3.03;;;;;;;;;;5071265;28;20113;-68
2023/06/21 02:28:24;;;;;;;6.05;2.75;;;;;;;;;;5072237;28;20185;-66
2023/06/21 02:30:52;;;;;;;8.48;2.97;;;;;;;;;;5073113;28;20185;-74
2023/06/21 02:33:20;;;;;;;6.22;2.50;;;;;;;;;;5065344;28;20487;-65
2023/06/21 02:35:49;;;;;;;9.80;2.72;;;;;;;;;;5065159;28;20523;-70
2023/06/21 02:38:19;;;;;;;5.82;2.70;;;;;;;;;;5065454;28;20153;-67
2023/06/21 02:40:49;;;;;;;4.43;2.40;;;;;;;;;;5074439;28;20500;-70
2023/06/21 02:43:18;;;;;;;6.55;2.63;;;;;;;;;;5070650;28;20473;-64
2023/06/21 02:45:46;;;;;;;5.03;2.45;;;;;;;;;;5074954;28;20051;-67
2023/06/21 02:48:14;;;;;;;5.07;2.83;;;;;;;;;;5074025;28;20514;-66
2023/06/21 02:50:43;;;;;;;9.23;3.72;;;;;;;;;;5072177;28;20071;-65
2023/06/21 02:53:11;;;;;;;6.43;2.90;;;;;;;;;;5071234;28;20168;-75
2023/06/21 02:55:40;;;;;;;5.80;2.88;;;;;;;;;;5072102;28;20469;-73
2023/06/21 02:58:09;;;;;;;5.50;2.72;;;;;;;;;;5072250;28;20048;-65
2023/06/21 03:00:40;;;;;;;5.90;3.03;;;;;;;;;;5072917;28;20559;-72
2023/06/21 03:03:09;;;;;;;8.60;2.97;;;;;;;;;;5070564;28;20489;-68
2023/06/21 03:05:38;;;;;;;4.07;2.67;;;;;;;;;;5070409;28;20100;-64
2023/06/21 03:08:07;;;;;;;6.90;2.97;;;;;;;;;;5079638;28;20098;-64
2023/06/21 03:10:36;;;;;;;10.15;3.05;;;;;;;;;;5068968;28;20582;-75
2023/06/21 03:13:05;;;;;;;11.60;2.92;;;;;;;;;;5071470;28;20067;-69
2023/06/21 03:15:34;;;;;;;7.30;3.13;;;;;;;;;;5050416;28;20541;-66
2023/06/21 03:18:03;;;;;;;8.02;2.42;;;;;;;;;;5043798;28;20742;-74
2023/06/21 03:20:32;;;;;;;6.55;2.50;;;;;;;;;;5042353;28;20132;-71
2023/06/21 03:23:00;;;;;;;5.53;2.42;;;;;;;;;;5047276;28;20055;-68
2023/06/21 03:25:28;;;;;;;4.82;2.50;;;;;;;;;;5054949;28;20086;-65
2023/06/21 03:27:59;;;;;;;6.18;2.65;;;;;;;;;;5071579;28;20794;-76
2023/06/21 03:30:28;;;;;;;4.88;2.60;;;;;;;;;;5071731;28;20051;-63
2023/06/21 03:32:58;;;;;;;6.43;3.55;;;;;;;;;;5070409;28;20941;-68
2023/06/21 03:35:29;;;;;;;6.63;2.63;;;;;;;;;;5066547;28;20055;-65
2023/06/21 03:37:57;;;;;;;6.20;2.75;;;;;;;;;;5070571;28;20504;-65
2023/06/21 03:40:25;;;;;;;7.90;2.35;;;;;;;;;;5070849;28;20048;-70
2023/06/21 03:42:54;;;;;;;4.78;2.53;;;;;;;;;;5072105;28;20048;-74
2023/06/21 03:45:22;;;;;;;9.13;2.70;;;;;;;;;;5061672;28;20144;-67
2023/06/21 03:47:51;;;;;;;6.28;2.05;;;;;;;;;;5049049;28;21078;-72
2023/06/21 03:50:21;;;;;;;5.38;3.10;;;;;;;;;;5056574;28;20063;-69
2023/06/21 03:52:49;;;;;;;3.95;2.65;;;;;;;;;;5048937;28;20446;-71
2023/06/21 03:55:20;;;;;;;5.05;2.45;;;;;;;;;;5053466;28;20051;-66
2023/06/21 03:57:48;;;;;;;7.40;2.60;;;;;;;;;;5049507;28;20056;-70
2023/06/21 04:00:17;;;;;;;6.40;2.67;;;;;;;;;;5046948;28;20969;-71
2023/06/21 04:02:45;;;;;;;8.40;3.00;;;;;;;;;;5048210;28;20060;-67
2023/06/21 04:05:14;;;;;;;5.10;2.72;;;;;;;;;;5049717;28;20060;-68
2023/06/21 04:07:44;;;;;;;13.57;3.05;;;;;;;;;;5048820;28;20147;-67
2023/06/21 04:10:13;;;;;;;5.82;3.25;;;;;;;;;;5049405;28;20527;-70
2023/06/21 04:12:41;;;;;;;5.72;2.88;;;;;;;;;;5049410;28;20157;-67
2023/06/21 04:15:11;;;;;;;5.38;3.13;;;;;;;;;;5044903;28;20071;-69
2023/06/21 04:17:39;;;;;;;6.18;2.50;;;;;;;;;;5050163;28;20064;-73
2023/06/21 04:20:11;;;;;;;7.75;2.58;;;;;;;;;;5050825;28;20494;-65
2023/06/21 04:22:40;;;;;;;4.63;2.50;;;;;;;;;;5049428;28;20045;-69
2023/06/21 04:25:11;;;;;;;8.52;2.72;;;;;;;;;;5051771;28;20045;-67
2023/06/21 04:27:40;;;;;;;6.05;2.72;;;;;;;;;;5045598;28;20049;-66
2023/06/21 04:30:10;;;;;;;8.93;2.47;;;;;;;;;;5050410;28;20075;-64
2023/06/21 04:32:44;;;;;;;4.28;2.47;;;;;;;;;;5054607;28;20052;-63
2023/06/21 04:35:14;;;;;;;5.13;2.67;;;;;;;;;;5047454;28;20049;-64
2023/06/21 04:37:44;;;;;;;5.55;2.47;;;;;;;;;;5049788;28;20048;-65
2023/06/21 04:40:16;;;;;;;11.85;3.35;;;;;;;;;;5052092;28;20048;-65
2023/06/21 04:42:46;;;;;;;6.15;3.08;;;;;;;;;;5052921;28;20053;-64
2023/06/21 04:45:15;;;;;;;5.63;2.88;;;;;;;;;;5055598;28;20686;-67
2023/06/21 04:47:46;;;;;;;5.85;3.58;;;;;;;;;;5070546;28;20048;-67
2023/06/21 04:50:19;;;;;;;7.60;3.15;;;;;;;;;;5066788;28;20062;-71
2023/06/21 04:52:49;;;;;;;7.53;3.33;;;;;;;;;;5063348;28;20082;-63
2023/06/21 04:55:20;;;;;;;7.00;3.05;;;;;;;;;;5067001;28;20056;-64
2023/06/21 04:57:49;;;;;;;6.32;2.75;;;;;;;;;;5065587;28;20500;-66
2023/06/21 05:00:18;;;;;;;7.88;2.80;;;;;;;;;;5064138;28;20075;-69
2023/06/21 05:02:47;;;;;;;11.77;2.80;;;;;;;;;;5067258;28;20147;-64
2023/06/21 05:05:16;;;;;;;7.97;2.83;;;;;;;;;;5062752;28;20406;-70
2023/06/21 05:07:44;;;;;;;8.60;2.70;;;;;;;;;;5065528;28;20055;-69
2023/06/21 05:10:13;;;;;;;8.05;3.50;;;;;;;;;;5070430;28;20099;-67
2023/06/21 05:12:42;;;;;;;11.82;3.72;;;;;;;;;;5070057;28;20853;-68
2023/06/21 05:15:11;;;;;;;7.07;3.15;;;;;;;;;;5067008;28;20254;-74
2023/06/21 05:17:39;;;;;;;6.18;2.55;;;;;;;;;;5072826;28;20814;-65
2023/06/21 05:20:09;;;;;;;7.07;3.33;;;;;;;;;;5071009;28;20040;-66
2023/06/21 05:22:39;;;;;;;8.40;3.08;;;;;;;;;;5074756;28;20048;-63
2023/06/21 05:25:07;;;;;;;7.97;3.35;;;;;;;;;;5068254;28;20052;-64
2023/06/21 05:27:35;;;;;;;8.85;4.03;;;;;;;;;;5076296;28;20040;-66
2023/06/21 05:30:06;;;;;;;6.28;3.38;;;;;;;;;;5070322;28;20437;-72
2023/06/21 05:32:35;;;;;;;7.32;3.55;;;;;;;;;;5076946;28;20062;-67
2023/06/21 05:35:03;;;;;;;6.68;3.83;;;;;;;;;;5072214;28;20048;-65
2023/06/21 05:37:31;;;;;;;7.63;3.67;;;;;;;;;;5071130;28;21456;-68
2023/06/21 05:40:02;;;;;;;6.93;3.33;;;;;;;;;;5067582;28;20044;-70
2023/06/21 05:42:30;;;;;;;10.48;2.88;;;;;;;;;;5064765;28;20087;-70
2023/06/21 05:44:59;;;;;;;10.75;3.72;;;;;;;;;;5073700;28;20055;-74
2023/06/21 05:47:29;;;;;;;7.65;3.30;;;;;;;;;;5069267;28;20079;-69
2023/06/21 05:49:57;;;;;;;11.90;3.10;;;;;;;;;;5071773;28;20098;-67
2023/06/21 05:52:25;;;;;;;8.63;3.15;;;;;;;;;;5069584;28;20113;-65
2023/06/21 05:54:54;;;;;;;8.70;3.00;;;;;;;;;;5070735;28;20051;-65
2023/06/21 05:57:24;;;;;;;10.02;4.07;;;;;;;;;;5073905;28;20052;-65
2023/06/21 05:59:52;;;;;;;5.95;3.13;;;;;;;;;;5067881;28;20054;-68
2023/06/21 06:02:21;;;;;;;11.45;3.55;;;;;;;;;;5070945;28;20367;-74
2023/06/21 06:04:51;;;;;;;7.75;3.50;;;;;;;;;;5072654;28;20090;-68
2023/06/21 06:07:19;;;;;;;8.18;4.18;;;;;;;;;;5073896;28;20144;-65
2023/06/21 06:09:47;;;;;;;6.38;3.25;;;;;;;;;;5071292;28;20068;-71
2023/06/21 06:12:17;;;;;;;7.95;3.75;;;;;;;;;;5070406;28;20671;-65
2023/06/21 06:14:46;;;;;;;6.38;3.45;;;;;;;;;;5075014;28;20055;-69
2023/06/21 06:17:16;;;;;;;7.95;3.65;;;;;;;;;;5072295;28;20048;-67
2023/06/21 06:19:44;;;;;;;6.85;3.47;;;;;;;;;;5070330;28;20076;-69
2023/06/21 06:22:14;;;;;;;7.68;3.28;;;;;;;;;;5072655;28;20253;-66
2023/06/21 06:24:45;;;;;;;8.05;3.50;;;;;;;;;;5072042;28;20565;-65
2023/06/21 06:27:13;;;;;;;9.05;3.10;;;;;;;;;;5073764;28;20040;-70
2023/06/21 06:29:42;;;;;;;10.68;3.38;;;;;;;;;;5071586;28;20056;-66
2023/06/21 06:32:10;;;;;;;7.78;3.15;;;;;;;;;;5069717;28;20135;-74
2023/06/21 06:34:38;;;;;;;9.95;2.92;;;;;;;;;;5070404;28;20221;-67
2023/06/21 06:37:07;;;;;;;8.05;3.38;;;;;;;;;;5073884;28;20084;-66
2023/06/21 06:39:44;;;;;;;9.60;4.15;;;;;;;;;;5074127;28;20056;-65
2023/06/21 06:42:12;;;;;;;8.65;4.30;;;;;;;;;;5067725;28;20063;-73
2023/06/21 06:44:41;;;;;;;8.18;3.80;;;;;;;;;;5070718;28;20078;-69
2023/06/21 06:47:09;;;;;;;12.48;4.13;;;;;;;;;;5074302;28;20106;-68
2023/06/21 06:49:37;;;;;;;6.43;3.30;;;;;;;;;;5071125;28;20056;-66
2023/06/21 06:52:06;;;;;;;10.65;3.65;;;;;;;;;;5073926;28;22165;-68
2023/06/21 06:54:35;;;;;;;6.80;2.90;;;;;;;;;;5074096;28;20497;-67
2023/06/21 06:57:05;;;;;;;10.90;3.90;;;;;;;;;;5072777;28;20729;-69
2023/06/21 06:59:33;;;;;;;7.43;3.53;;;;;;;;;;5077176;28;20052;-70
2023/06/21 07:02:01;;;;;;;7.72;3.58;;;;;;;;;;5072063;28;20213;-67
2023/06/21 07:04:30;;;;;;;11.00;3.75;;;;;;;;;;5070687;28;20051;-68
2023/06/21 07:07:01;;;;;;;6.68;3.42;;;;;;;;;;5076589;28;20075;-72
2023/06/21 07:09:30;;;;;;;9.30;3.60;;;;;;;;;;5074515;28;20048;-68
2023/06/21 07:12:01;;;;;;;11.63;3.40;;;;;;;;;;5073195;28;20459;-67
2023/06/21 07:14:31;;;;;;;10.48;3.42;;;;;;;;;;5072247;28;20385;-68
2023/06/21 07:16:59;;;;;;;8.13;3.22;;;;;;;;;;5071964;28;20179;-75
2023/06/21 07:19:27;;;;;;;7.70;3.10;;;;;;;;;;5067908;28;20048;-76
2023/06/21 07:21:56;;;;;;;7.22;3.25;;;;;;;;;;5077108;28;20371;-69
2023/06/21 07:24:24;;;;;;;6.40;3.88;;;;;;;;;;5073690;28;20130;-73
2023/06/21 07:26:53;;;;;;;5.13;3.25;;;;;;;;;;5074286;28;20120;-70
2023/06/21 07:29:21;;;;;;;7.43;2.65;;;;;;;;;;5073205;28;20054;-72
2023/06/21 07:31:51;;;;;;;9.40;3.17;;;;;;;;;;5070876;28;20140;-70
2023/06/21 07:34:19;;;;;;;7.45;3.10;;;;;;;;;;5071447;28;20132;-67
2023/06/21 07:36:48;;;;;;;8.00;2.58;;;;;;;;;;5073982;28;20044;-73
2023/06/21 07:39:17;;;;;;;7.57;2.63;;;;;;;;;;5072994;28;20040;-67
2023/06/21 07:41:45;;;;;;;12.20;3.40;;;;;;;;;;5073748;28;20105;-67
2023/06/21 07:44:13;;;;;;;6.53;2.80;;;;;;;;;;5072782;28;20695;-66
2023/06/21 07:46:42;;;;;;;7.00;3.25;;;;;;;;;;5072223;28;20067;-67
2023/06/21 07:49:13;;;;;;;5.72;2.85;;;;;;;;;;5073394;28;20152;-67
2023/06/21 07:51:41;;;;;;;5.15;2.92;;;;;;;;;;5068589;28;20135;-69
2023/06/21 07:54:10;;;;;;;6.40;2.42;;;;;;;;;;5074194;28;20040;-73
2023/06/21 07:56:38;;;;;;;5.18;2.58;;;;;;;;;;5070192;28;20067;-70
2023/06/21 07:59:06;;;;;;;8.35;2.95;;;;;;;;;;5071669;28;20135;-69
2023/06/21 08:01:35;;;;;;;5.22;2.75;;;;;;;;;;5073949;28;20475;-71
2023/06/21 08:04:05;;;;;;;3.70;2.03;;;;;;;;;;5068936;28;20051;-67
2023/06/21 08:06:35;;;;;;;4.38;2.60;;;;;;;;;;5070511;28;20101;-75
2023/06/21 08:09:04;;;;;;;7.85;2.75;;;;;;;;;;5074632;28;20545;-67
2023/06/21 08:11:32;;;;;;;4.18;2.35;;;;;;;;;;5072809;28;20462;-67
2023/06/21 08:14:01;;;;;;;5.22;2.22;;;;;;;;;;5072385;28;20075;-66
2023/06/21 08:16:29;;;;;;;6.97;2.85;;;;;;;;;;5072449;28;20163;-66
2023/06/21 08:18:58;;;;;;;6.45;2.65;;;;;;;;;;5073079;28;20518;-69
2023/06/21 08:21:26;;;;;;;7.25;2.42;;;;;;;;;;5071980;28;20404;-66
2023/06/21 08:23:56;;;;;;;6.32;2.80;;;;;;;;;;5073883;28;20101;-67
2023/06/21 08:26:24;;;;;;;4.75;2.50;;;;;;;;;;5070947;28;20097;-71
2023/06/21 08:28:53;;;;;;;4.78;2.67;;;;;;;;;;5073625;28;20597;-71
2023/06/21 08:31:21;;;;;;;6.20;2.40;;;;;;;;;;5074079;28;20398;-65
2023/06/21 08:33:49;;;;;;;6.40;2.47;;;;;;;;;;5071461;28;20426;-66
2023/06/21 08:36:18;;;;;;;8.05;3.22;;;;;;;;;;5070234;28;20093;-65
2023/06/21 08:38:46;;;;;;;4.72;2.70;;;;;;;;;;5071628;28;20105;-64
2023/06/21 08:41:16;;;;;;;11.32;2.70;;;;;;;;;;5071792;28;20056;-71
2023/06/21 08:43:44;;;;;;;6.03;2.90;;;;;;;;;;5071745;28;20052;-66
2023/06/21 08:46:13;;;;;;;6.88;3.05;;;;;;;;;;5079340;28;20048;-71
2023/06/21 08:48:42;;;;;;;7.50;2.55;;;;;;;;;;5078756;28;20056;-72
2023/06/21 08:51:11;;;;;;;6.63;2.65;;;;;;;;;;5076854;28;20080;-64
2023/06/21 08:53:43;;;;;;;6.75;3.00;;;;;;;;;;5078378;28;20485;-62
2023/06/21 08:56:14;;;;;;;5.90;2.40;;;;;;;;;;5070023;28;20080;-67
2023/06/21 08:58:48;;;;;;;8.30;2.90;;;;;;;;;;5080358;28;20050;-64
2023/06/21 09:01:18;;;;;;;8.52;3.47;;;;;;;;;;5077522;28;20055;-68
2023/06/21 09:03:48;;;;;;;7.18;2.95;;;;;;;;;;5076965;28;20060;-64
2023/06/21 09:06:22;;;;;;;8.52;3.00;;;;;;;;;;5074762;28;20063;-65
2023/06/21 09:08:51;;;;;;;11.90;3.83;;;;;;;;;;5071582;28;20044;-63
2023/06/21 09:11:22;;;;;;;6.30;3.22;;;;;;;;;;5071190;28;20044;-71
2023/06/21 09:13:52;;;;;;;9.93;3.25;;;;;;;;;;5072215;28;20189;-63
2023/06/21 09:16:21;;;;;;;12.23;3.63;;;;;;;;;;5071023;28;20354;-64
2023/06/21 09:18:49;;;;;;;6.82;3.35;;;;;;;;;;5076061;28;20090;-64
2023/06/21 09:21:17;;;;;;;8.35;3.33;;;;;;;;;;5072656;28;20105;-68
2023/06/21 09:23:46;;;;;;;6.45;3.10;;;;;;;;;;5076204;28;20044;-64
2023/06/21 09:26:14;;;;;;;6.03;3.20;;;;;;;;;;5076212;28;20273;-69
2023/06/21 09:28:45;;;;;;;5.47;2.85;;;;;;;;;;5079735;28;20459;-64
2023/06/21 09:31:15;;;;;;;7.88;3.40;;;;;;;;;;5075698;28;20044;-67
2023/06/21 09:33:47;;;;;;;10.40;3.75;;;;;;;;;;5080534;28;20131;-66
2023/06/21 09:36:16;;;;;;;3.90;2.72;;;;;;;;;;5076066;28;20170;-69
2023/06/21 09:38:44;;;;;;;7.38;2.88;;;;;;;;;;5079787;28;20047;-65
2023/06/21 09:41:13;;;;;;;8.63;2.72;;;;;;;;;;5080147;28;20498;-70
2023/06/21 09:43:43;;;;;;;4.85;3.10;;;;;;;;;;5077595;28;20470;-64
2023/06/21 09:46:12;;;;;;;9.68;3.45;;;;;;;;;;5076038;28;20397;-72
2023/06/21 09:48:42;;;;;;;6.65;3.47;;;;;;;;;;5078014;28;20576;-72
2023/06/21 09:51:14;;;;;;;9.48;2.97;;;;;;;;;;5076430;28;20520;-68
2023/06/21 09:53:44;;;;;;;6.78;2.80;;;;;;;;;;5078746;28;20145;-64
2023/06/21 09:56:14;;;;;;;11.55;3.47;;;;;;;;;;5078287;28;20067;-69
2023/06/21 09:58:43;;;;;;;6.50;3.03;;;;;;;;;;5079687;28;20549;-65
2023/06/21 10:01:15;;;;;;;8.13;2.97;;;;;;;;;;5079875;28;20394;-68
2023/06/21 10:03:46;;;;;;;6.03;3.10;;;;;;;;;;5072980;28;20381;-65
2023/06/21 10:06:17;;;;;;;5.53;2.88;;;;;;;;;;5082983;28;20059;-68
2023/06/21 10:08:49;;;;;;;5.57;2.90;;;;;;;;;;5076333;28;20129;-72
2023/06/21 10:11:18;;;;;;;5.60;2.83;;;;;;;;;;5073422;28;20044;-66
2023/06/21 10:13:46;;;;;;;6.90;3.53;;;;;;;;;;5071936;28;20051;-69
2023/06/21 10:16:17;;;;;;;5.30;2.70;;;;;;;;;;5077135;28;20067;-71
2023/06/21 10:18:48;;;;;;;8.25;3.22;;;;;;;;;;5081110;28;20196;-65
2023/06/21 10:21:17;;;;;;;7.65;3.45;;;;;;;;;;5080062;28;20097;-65
2023/06/21 10:23:48;;;;;;;3.63;2.78;;;;;;;;;;5078317;28;20476;-70
2023/06/21 10:26:18;;;;;;;7.28;3.22;;;;;;;;;;5078442;28;20075;-66
2023/06/21 10:28:47;;;;;;;6.22;3.10;;;;;;;;;;5080409;28;20044;-66
2023/06/21 10:31:15;;;;;;;4.90;2.83;;;;;;;;;;5076177;28;21047;-72
2023/06/21 10:33:45;;;;;;;7.78;3.08;;;;;;;;;;5078806;28;20079;-69
2023/06/21 10:36:18;;;;;;;7.63;3.40;;;;;;;;;;5078569;28;20156;-62
2023/06/21 10:38:48;;;;;;;5.88;3.28;;;;;;;;;;5076274;28;20136;-74
2023/06/21 10:41:17;;;;;;;7.95;3.40;;;;;;;;;;5083851;28;20048;-63
2023/06/21 10:43:45;;;;;;;7.13;3.80;;;;;;;;;;5077881;28;20055;-65
2023/06/21 10:46:14;;;;;;;7.22;3.40;;;;;;;;;;5081179;28;20044;-63
2023/06/21 10:48:43;;;;;;;8.40;3.78;;;;;;;;;;5077152;28;20059;-63
2023/06/21 10:51:12;;;;;;;8.55;2.95;;;;;;;;;;5083571;28;20143;-65
2023/06/21 10:53:42;;;;;;;6.80;3.42;;;;;;;;;;5078476;28;20086;-63
2023/06/21 10:56:16;;;;;;;6.15;2.03;;;;;;;;;;5077858;28;20048;-66
2023/06/21 10:58:44;;;;;;;7.78;1.83;;;;;;;;;;5074409;28;20398;-64
2023/06/21 11:01:13;;;;;;;6.25;2.15;;;;;;;;;;5074077;28;20047;-69
2023/06/21 11:03:42;;;;;;;9.88;2.10;;;;;;;;;;5078711;28;20101;-64
2023/06/21 11:06:24;;;;;;;6.70;1.80;;;;;;;;;;5083349;28;20070;-63
2023/06/21 11:08:54;;;;;;;8.70;1.90;;;;;;;;;;5081315;28;20500;-65
2023/06/21 11:11:29;;;;;;;7.80;1.55;;;;;;;;;;5083702;28;20055;-67
2023/06/21 11:13:58;;;;;;;9.25;1.60;;;;;;;;;;5083726;28;20048;-69
2023/06/21 11:16:27;;;;;;;4.25;1.65;;;;;;;;;;5084382;28;20052;-63
2023/06/21 11:18:57;;;;;;;5.43;1.55;;;;;;;;;;5082156;28;20500;-66
2023/06/21 11:21:37;;;;;;;7.63;1.90;;;;;;;;;;5078974;28;20048;-66
2023/06/21 11:24:08;;;;;;;7.65;2.28;;;;;;;;;;5077794;28;20079;-65
2023/06/21 11:26:52;;;;;;;9.15;1.58;;;;;;;;;;5073981;28;20075;-63
2023/06/21 11:29:21;;;;;;;5.97;1.60;;;;;;;;;;5075881;28;20052;-65
2023/06/21 11:31:49;;;;;;;10.90;2.13;;;;;;;;;;5082698;28;20047;-62
2023/06/21 11:34:24;;;;;;;11.32;2.35;;;;;;;;;;5081411;28;20251;-68
2023/06/21 11:36:52;;;;;;;8.88;1.70;;;;;;;;;;5073001;28;20131;-68
2023/06/21 11:39:28;;;;;;;7.57;1.98;;;;;;;;;;5079970;28;20488;-65
2023/06/21 11:42:00;;;;;;;6.68;1.88;;;;;;;;;;5080950;28;20104;-72
2023/06/21 11:44:30;;;;;;;5.95;1.25;;;;;;;;;;5079210;28;20138;-65
2023/06/21 11:47:13;;;;;;;7.88;1.30;;;;;;;;;;5076178;28;20052;-70
2023/06/21 11:49:46;;;;;;;8.63;1.63;;;;;;;;;;5080077;28;20083;-73
2023/06/21 11:52:15;;;;;;;8.63;2.00;;;;;;;;;;5081778;28;20116;-66
2023/06/21 11:54:44;;;;;;;7.13;1.30;;;;;;;;;;5080535;28;20158;-64
2023/06/21 11:57:13;;;;;;;8.13;1.42;;;;;;;;;;5075851;28;20048;-67
2023/06/21 11:59:41;;;;;;;7.57;1.60;;;;;;;;;;5078429;28;20075;-65
2023/06/21 12:02:13;;;;;;;11.50;1.65;;;;;;;;;;5077949;28;20389;-63
2023/06/21 12:04:43;;;;;;;7.05;1.70;;;;;;;;;;5074823;28;20504;-75
2023/06/21 12:07:12;;;;;;;6.65;1.42;;;;;;;;;;5080646;28;20051;-68
2023/06/21 12:09:41;;;;;;;11.60;2.10;;;;;;;;;;5083606;28;20044;-65
2023/06/21 12:12:11;;;;;;;10.60;1.98;;;;;;;;;;5080487;28;20075;-76
2023/06/21 12:14:39;;;;;;;9.75;1.67;;;;;;;;;;5072398;28;20072;-74
2023/06/21 12:17:08;;;;;;;5.57;1.88;;;;;;;;;;5081006;28;20075;-72
2023/06/21 12:19:36;;;;;;;9.30;1.35;;;;;;;;;;5076876;28;20472;-67
2023/06/21 12:22:05;;;;;;;9.48;1.42;;;;;;;;;;5080244;28;20120;-65
2023/06/21 12:24:35;;;;;;;8.32;1.98;;;;;;;;;;5074390;28;20119;-65
2023/06/21 12:27:03;;;;;;;6.65;1.55;;;;;;;;;;5076943;28;20101;-67
2023/06/21 12:29:33;;;;;;;3.75;1.25;;;;;;;;;;5075888;28;20048;-64
2023/06/21 12:32:04;;;;;;;8.90;1.73;;;;;;;;;;5078752;28;20087;-64
2023/06/21 12:34:33;;;;;;;8.45;1.73;;;;;;;;;;5074654;28;20059;-67
2023/06/21 12:37:02;;;;;;;5.05;1.38;;;;;;;;;;5072077;28;20063;-76
2023/06/21 12:39:31;;;;;;;10.05;2.50;;;;;;;;;;5075233;28;20064;-77
2023/06/21 12:42:00;;;;;;;4.38;1.55;;;;;;;;;;5077286;28;20086;-68
2023/06/21 12:44:31;;;;;;;3.05;1.27;;;;;;;;;;5082629;28;20493;-63
2023/06/21 12:47:01;;;;;;;6.85;1.35;;;;;;;;;;5076541;28;20779;-64
2023/06/21 12:49:29;;;;;;;7.57;1.55;;;;;;;;;;5083837;28;20043;-69
2023/06/21 12:52:02;;;;;;;4.47;1.40;;;;;;;;;;5077345;28;20055;-65
2023/06/21 12:54:31;;;;;;;8.00;1.35;;;;;;;;;;5085564;28;20376;-67
2023/06/21 12:57:00;;;;;;;7.18;2.20;;;;;;;;;;5086232;28;20105;-64
2023/06/21 12:59:29;;;;;;;13.30;1.70;;;;;;;;;;5077136;28;20054;-66
2023/06/21 13:01:57;;;;;;;5.05;2.13;;;;;;;;;;5075323;28;20052;-67
2023/06/21 13:04:27;;;;;;;3.95;1.27;;;;;;;;;;5074724;28;20056;-64
2023/06/21 13:06:57;;;;;;;4.47;1.85;;;;;;;;;;5077796;28;20040;-64
2023/06/21 13:09:26;;;;;;;9.57;1.65;;;;;;;;;;5079575;28;20132;-73
2023/06/21 13:11:54;;;;;;;8.27;1.88;;;;;;;;;;5073647;28;20059;-65
2023/06/21 13:14:23;;;;;;;5.10;1.20;;;;;;;;;;5077634;28;20389;-77
2023/06/21 13:16:51;;;;;;;6.93;1.58;;;;;;;;;;5078318;28;20047;-63
2023/06/21 13:19:20;;;;;;;4.75;1.42;;;;;;;;;;5079154;28;20113;-69
2023/06/21 13:21:50;;;;;;;7.75;1.50;;;;;;;;;;5082265;28;20066;-63
2023/06/21 13:24:18;;;;;;;6.32;1.23;;;;;;;;;;5072364;28;20484;-66
2023/06/21 13:26:46;;;;;;;2.75;1.20;;;;;;;;;;5077502;28;20469;-69
2023/06/21 13:29:15;;;;;;;4.38;1.35;;;;;;;;;;5080874;28;20075;-64
2023/06/21 13:31:43;;;;;;;9.50;2.25;;;;;;;;;;5080659;28;20048;-74
2023/06/21 13:34:12;;;;;;;8.93;1.30;;;;;;;;;;5081573;28;20538;-67
2023/06/21 13:36:40;;;;;;;4.65;1.35;;;;;;;;;;5078080;28;20122;-73
2023/06/21 13:39:10;;;;;;;5.40;1.30;;;;;;;;;;5080859;28;20048;-68
2023/06/21 13:41:38;;;;;;;7.65;1.40;;;;;;;;;;5080612;28;20078;-66
2023/06/21 13:44:07;;;;;;;7.68;1.60;;;;;;;;;;5078677;28;20072;-67
2023/06/21 13:46:35;;;;;;;2.95;1.30;;;;;;;;;;5076350;28;20455;-66
2023/06/21 13:49:04;;;;;;;3.40;1.30;;;;;;;;;;5077868;28;20497;-74
2023/06/21 13:51:32;;;;;;;5.57;1.52;;;;;;;;;;5078169;28;20036;-64
2023/06/21 13:54:00;;;;;;;8.73;1.80;;;;;;;;;;5074259;28;20550;-74
2023/06/21 13:56:33;;;;;;;5.07;1.40;;;;;;;;;;5078036;28;20412;-74
2023/06/21 13:59:02;;;;;;;5.45;1.58;;;;;;;;;;5078435;28;20047;-64
2023/06/21 14:01:30;;;;;;;3.28;1.17;;;;;;;;;;5081347;28;20040;-65
2023/06/21 14:03:59;;;;;;;7.32;1.80;;;;;;;;;;5080491;28;20052;-64
2023/06/21 14:06:28;;;;;;;7.25;1.50;;;;;;;;;;5078673;28;20048;-66
2023/06/21 14:08:56;;;;;;;3.72;1.48;;;;;;;;;;5080310;28;20496;-71
2023/06/21 14:11:24;;;;;;;6.55;1.48;;;;;;;;;;5080237;28;20137;-66
2023/06/21 14:13:54;;;;;;;4.57;1.20;;;;;;;;;;5081810;28;20048;-65
2023/06/21 14:16:23;;;;;;;3.55;0.98;;;;;;;;;;5078683;28;20048;-73
2023/06/21 14:18:51;;;;;;;4.35;1.33;;;;;;;;;;5076739;28;20052;-71
2023/06/21 14:21:19;;;;;;;4.60;1.42;;;;;;;;;;5070697;28;20125;-63
2023/06/21 14:23:48;;;;;;;2.90;1.30;;;;;;;;;;5074686;28;20066;-67
2023/06/21 14:26:16;;;;;;;5.85;1.50;;;;;;;;;;5071623;28;20044;-64
2023/06/21 14:28:45;;;;;;;4.50;1.55;;;;;;;;;;5075991;28;20110;-74
2023/06/21 14:31:15;;;;;;;4.53;1.33;;;;;;;;;;5069001;28;20047;-67
2023/06/21 14:33:44;;;;;;;2.38;1.10;;;;;;;;;;5078534;28;20040;-64
2023/06/21 14:36:12;;;;;;;4.20;1.67;;;;;;;;;;5075244;28;20504;-68
2023/06/21 14:38:40;;;;;;;2.78;1.08;;;;;;;;;;5077651;28;20063;-68
2023/06/21 14:41:09;;;;;;;4.95;1.20;;;;;;;;;;5081427;28;20044;-65
2023/06/21 14:43:37;;;;;;;4.13;1.40;;;;;;;;;;5083506;28;20041;-67
2023/06/21 14:46:08;;;;;;;5.10;1.73;;;;;;;;;;5074380;28;20088;-64
2023/06/21 14:48:38;;;;;;;6.45;1.77;;;;;;;;;;5080219;28;20052;-72
2023/06/21 14:51:11;;;;;;;8.98;1.85;;;;;;;;;;5074718;28;20412;-64
2023/06/21 14:53:39;;;;;;;5.28;1.30;;;;;;;;;;5073814;28;20476;-65
2023/06/21 14:56:08;;;;;;;7.00;1.35;;;;;;;;;;5074844;28;20657;-76